createdAt,value
2023-02-06T00:02:08.338Z,-5.21
2023-02-06T00:05:10.822Z,-5.25
2023-02-06T00:08:13.030Z,-5.28
2023-02-06T00:11:19.380Z,-5.33
2023-02-06T00:14:21.541Z,-5.32
2023-02-06T00:17:24.022Z,-5.00
2023-02-06T00:20:26.196Z,-4.61
2023-02-06T00:23:28.681Z,-4.64
2023-02-06T00:26:31.576Z,-4.52
2023-02-06T00:29:34.196Z,-4.49
2023-02-06T00:32:36.659Z,-4.70
2023-02-06T00:35:39.104Z,-4.71
2023-02-06T00:38:42.071Z,-4.58
2023-02-06T00:41:45.089Z,-4.74
2023-02-06T00:44:47.329Z,-4.95
2023-02-06T00:47:50.691Z,-5.03
2023-02-06T00:50:53.784Z,-4.86
2023-02-06T00:53:56.159Z,-4.87
2023-02-06T00:56:58.204Z,-4.94
2023-02-06T01:00:00.787Z,-5.00
2023-02-06T01:03:03.451Z,-4.98
2023-02-06T01:06:06.177Z,-4.92
2023-02-06T01:09:08.424Z,-4.85
2023-02-06T01:12:10.890Z,-4.90
2023-02-06T01:15:14.146Z,-4.95
2023-02-06T01:18:16.648Z,-5.01
2023-02-06T01:21:22.887Z,-4.90
2023-02-06T01:24:25.653Z,-4.76
2023-02-06T01:27:28.034Z,-4.80
2023-02-06T01:30:30.650Z,-4.88
2023-02-06T01:33:32.860Z,-4.84
2023-02-06T01:36:36.017Z,-4.89
2023-02-06T01:39:38.193Z,-5.00
2023-02-06T01:42:40.924Z,-4.97
2023-02-06T01:45:44.996Z,-4.97
2023-02-06T01:48:51.541Z,-4.93
2023-02-06T01:52:02.964Z,-5.08
2023-02-06T01:55:06.270Z,-5.29
2023-02-06T01:58:13.155Z,-5.43
2023-02-06T02:01:16.176Z,-5.50
2023-02-06T02:04:24.229Z,-5.60
2023-02-06T02:07:31.813Z,-5.61
2023-02-06T02:10:34.975Z,-5.43
2023-02-06T02:13:39.443Z,-5.17
2023-02-06T02:17:00.748Z,-5.25
2023-02-06T02:20:38.616Z,-5.22
2023-02-06T02:24:31.710Z,-5.24
2023-02-06T02:28:02.279Z,-5.28
2023-02-06T02:31:30.687Z,-5.41
2023-02-06T02:34:51.670Z,-5.41
2023-02-06T02:37:55.356Z,-5.41
2023-02-06T02:41:06.899Z,-5.33
2023-02-06T02:44:15.893Z,-5.30
2023-02-06T02:47:23.739Z,-5.21
2023-02-06T02:50:28.355Z,-5.21
2023-02-06T02:53:31.471Z,-5.32
2023-02-06T02:56:33.886Z,-5.45
2023-02-06T02:59:39.270Z,-5.47
2023-02-06T03:02:42.366Z,-5.55
2023-02-06T03:06:05.409Z,-5.61
2023-02-06T03:09:16.700Z,-5.65
2023-02-06T03:12:29.422Z,-5.42
2023-02-06T03:15:50.384Z,-5.61
2023-02-06T03:19:02.798Z,-5.53
2023-02-06T03:22:05.450Z,-5.28
2023-02-06T03:25:15.498Z,-5.22
2023-02-06T03:28:23.727Z,-5.40
2023-02-06T03:31:38.199Z,-5.52
2023-02-06T03:34:51.139Z,-5.65
2023-02-06T03:37:53.941Z,-5.56
2023-02-06T03:40:59.187Z,-5.32
2023-02-06T03:44:05.710Z,-5.25
2023-02-06T03:47:10.379Z,-5.26
2023-02-06T03:50:15.037Z,-5.25
2023-02-06T03:53:18.915Z,-5.44
2023-02-06T03:56:59.513Z,-5.38
2023-02-06T04:00:02.151Z,-5.49
2023-02-06T04:03:15.121Z,-5.56
2023-02-06T04:06:17.602Z,-5.66
2023-02-06T04:09:19.797Z,-5.61
2023-02-06T04:12:23.381Z,-5.37
2023-02-06T04:15:25.703Z,-5.32
2023-02-06T04:18:28.281Z,-5.32
2023-02-06T04:21:30.534Z,-5.43
2023-02-06T04:24:33.356Z,-5.41
2023-02-06T04:27:35.959Z,-5.20
2023-02-06T04:30:38.646Z,-5.15
2023-02-06T04:33:40.964Z,-5.34
2023-02-06T04:36:43.644Z,-5.36
2023-02-06T04:39:47.200Z,-5.51
2023-02-06T04:42:49.758Z,-5.57
2023-02-06T04:45:52.063Z,-5.44
2023-02-06T04:48:54.582Z,-5.41
2023-02-06T04:51:56.838Z,-5.28
2023-02-06T04:54:59.317Z,-5.27
2023-02-06T04:58:01.442Z,-5.15
2023-02-06T05:01:04.055Z,-5.07
2023-02-06T05:04:06.677Z,-5.20
2023-02-06T05:07:09.136Z,-5.25
2023-02-06T05:10:11.503Z,-5.30
2023-02-06T05:13:13.999Z,-5.26
2023-02-06T05:16:17.469Z,-5.14
2023-02-06T05:19:19.946Z,-5.07
2023-02-06T05:22:22.708Z,-5.16
2023-02-06T05:25:25.127Z,-5.03
2023-02-06T05:28:29.887Z,-5.06
2023-02-06T05:31:32.636Z,-5.00
2023-02-06T05:34:35.234Z,-4.97
2023-02-06T05:37:40.525Z,-4.93
2023-02-06T05:40:42.920Z,-4.94
2023-02-06T05:43:45.525Z,-5.06
2023-02-06T05:46:48.460Z,-5.15
2023-02-06T05:49:50.959Z,-5.09
2023-02-06T05:52:53.268Z,-5.09
2023-02-06T05:55:56.369Z,-5.03
2023-02-06T05:58:59.119Z,-4.80
2023-02-06T06:02:02.223Z,-4.62
2023-02-06T06:05:06.146Z,-4.49
2023-02-06T06:08:08.754Z,-4.52
2023-02-06T06:11:11.689Z,-4.56
2023-02-06T06:14:13.942Z,-4.56
2023-02-06T06:17:16.497Z,-4.52
2023-02-06T06:20:18.868Z,-4.49
2023-02-06T06:23:21.310Z,-4.36
2023-02-06T06:26:23.502Z,-4.27
2023-02-06T06:29:26.850Z,-4.20
2023-02-06T06:32:29.005Z,-4.16
2023-02-06T06:35:31.641Z,-4.06
2023-02-06T06:38:34.084Z,-4.08
2023-02-06T06:41:36.565Z,-4.01
2023-02-06T06:44:38.928Z,-3.86
2023-02-06T06:47:41.545Z,-3.88
2023-02-06T06:50:43.824Z,-3.91
2023-02-06T06:53:46.522Z,-3.76
2023-02-06T06:56:48.712Z,-3.80
2023-02-06T06:59:51.426Z,-3.76
2023-02-06T07:02:53.708Z,-3.75
2023-02-06T07:05:56.245Z,-3.70
2023-02-06T07:08:58.575Z,-3.78
2023-02-06T07:12:01.332Z,-3.75
2023-02-06T07:15:04.863Z,-3.65
2023-02-06T07:18:07.428Z,-3.60
2023-02-06T07:21:10.932Z,-3.52
2023-02-06T07:24:13.826Z,-3.43
2023-02-06T07:27:16.188Z,-3.45
2023-02-06T07:30:19.180Z,-3.32
2023-02-06T07:33:21.634Z,-3.26
2023-02-06T07:36:24.458Z,-3.10
2023-02-06T07:39:26.791Z,-2.91
2023-02-06T07:42:29.896Z,-2.82
2023-02-06T07:45:32.852Z,-2.76
2023-02-06T07:48:35.936Z,-2.76
2023-02-06T07:51:38.129Z,-2.73
2023-02-06T07:54:40.701Z,-2.71
2023-02-06T07:57:42.980Z,-2.68
2023-02-06T08:00:45.997Z,-2.71
2023-02-06T08:03:53.453Z,-2.67
2023-02-06T08:06:55.605Z,-2.70
2023-02-06T08:09:58.133Z,-2.61
2023-02-06T08:13:00.467Z,-2.46
2023-02-06T08:16:07.573Z,-2.39
2023-02-06T08:19:10.908Z,-2.41
2023-02-06T08:22:13.515Z,-2.31
2023-02-06T08:25:15.788Z,-2.19
2023-02-06T08:28:18.271Z,-2.26
2023-02-06T08:31:26.856Z,-2.16
2023-02-06T08:34:29.401Z,-2.09
2023-02-06T08:37:32.685Z,-1.94
2023-02-06T08:40:35.485Z,-1.77
2023-02-06T08:43:37.641Z,-1.75
2023-02-06T08:46:40.969Z,-1.59
2023-02-06T08:49:43.258Z,-1.50
2023-02-06T08:52:46.302Z,-1.18
2023-02-06T08:55:49.532Z,-1.11
2023-02-06T08:58:54.043Z,-1.13
2023-02-06T09:01:56.435Z,-0.92
2023-02-06T09:04:59.275Z,-0.74
2023-02-06T09:08:01.476Z,-0.63
2023-02-06T09:11:12.835Z,-0.52
2023-02-06T09:14:17.472Z,-0.54
2023-02-06T09:17:20.023Z,-0.98
2023-02-06T09:20:26.525Z,-0.65
2023-02-06T09:23:29.388Z,-0.59
2023-02-06T09:26:50.359Z,-0.42
2023-02-06T09:30:00.839Z,-0.37
2023-02-06T09:33:03.414Z,-0.07
2023-02-06T09:36:12.165Z,-0.04
2023-02-06T09:39:14.832Z,0.07
2023-02-06T09:42:24.116Z,0.20
2023-02-06T09:45:29.324Z,0.43
2023-02-06T09:48:39.245Z,0.82
2023-02-06T09:52:12.601Z,1.15
2023-02-06T09:55:25.122Z,1.44
2023-02-06T09:58:36.344Z,1.22
2023-02-06T10:01:46.455Z,1.71
2023-02-06T10:05:20.043Z,2.85
2023-02-06T10:08:39.052Z,2.85
2023-02-06T10:12:07.105Z,3.89
2023-02-06T10:15:23.061Z,4.78
2023-02-06T10:18:36.818Z,5.58
2023-02-06T10:21:53.552Z,6.42
2023-02-06T10:25:22.609Z,6.84
2023-02-06T10:28:28.326Z,7.23
2023-02-06T10:31:54.009Z,8.23
2023-02-06T10:35:15.896Z,6.63
2023-02-06T10:38:38.900Z,7.53
2023-02-06T10:41:56.582Z,7.54
2023-02-06T10:45:18.497Z,8.57
2023-02-06T10:48:39.149Z,7.15
2023-02-06T10:51:45.356Z,6.99
2023-02-06T10:54:52.633Z,7.29
2023-02-06T10:58:11.899Z,7.29
2023-02-06T11:01:25.589Z,6.00
2023-02-06T11:04:39.154Z,6.60
2023-02-06T11:07:47.683Z,6.41
2023-02-06T11:10:50.388Z,6.09
2023-02-06T11:13:58.718Z,6.71
2023-02-06T11:17:01.995Z,5.80
2023-02-06T11:20:35.343Z,7.18
2023-02-06T11:23:37.961Z,8.55
2023-02-06T11:26:50.090Z,10.07
2023-02-06T11:29:53.074Z,11.36
2023-02-06T11:33:08.525Z,12.19
2023-02-06T11:36:22.795Z,12.04
2023-02-06T11:39:27.729Z,12.03
2023-02-06T11:42:30.120Z,10.42
2023-02-06T11:45:33.801Z,9.22
2023-02-06T11:49:02.407Z,8.91
2023-02-06T11:52:04.742Z,9.34
2023-02-06T11:55:21.298Z,9.79
2023-02-06T11:58:27.102Z,8.56
2023-02-06T12:01:44.521Z,8.02
2023-02-06T12:04:47.752Z,9.13
2023-02-06T12:08:00.072Z,8.89
2023-02-06T12:11:05.730Z,9.31
2023-02-06T12:14:18.099Z,9.08
2023-02-06T12:17:31.580Z,10.65
2023-02-06T12:20:36.828Z,11.64
2023-02-06T12:23:41.596Z,11.31
2023-02-06T12:26:46.601Z,10.84
2023-02-06T12:29:58.758Z,10.51
2023-02-06T12:33:14.240Z,9.20
2023-02-06T12:36:20.898Z,8.04
2023-02-06T12:39:23.537Z,8.35
2023-02-06T12:42:43.054Z,8.23
2023-02-06T12:45:54.105Z,7.05
2023-02-06T12:49:10.375Z,6.25
2023-02-06T12:52:25.982Z,5.71
2023-02-06T12:55:41.604Z,5.31
2023-02-06T12:58:43.732Z,5.54
2023-02-06T13:01:56.595Z,5.09
2023-02-06T13:05:03.921Z,4.78
2023-02-06T13:08:16.536Z,4.08
2023-02-06T13:11:21.905Z,3.64
2023-02-06T13:14:28.999Z,3.25
2023-02-06T13:17:38.516Z,3.23
2023-02-06T13:21:13.082Z,3.32
2023-02-06T13:24:18.126Z,2.95
2023-02-06T13:27:24.705Z,2.95
2023-02-06T13:30:29.861Z,3.19
2023-02-06T13:33:48.313Z,4.33
2023-02-06T13:36:52.536Z,5.63
2023-02-06T13:40:23.237Z,6.65
2023-02-06T13:43:28.964Z,6.96
2023-02-06T13:47:08.135Z,7.20
2023-02-06T13:50:29.168Z,8.09
2023-02-06T13:54:16.758Z,7.54
2023-02-06T13:57:52.910Z,7.75
2023-02-06T14:00:57.869Z,8.32
2023-02-06T14:04:00.788Z,8.54
2023-02-06T14:07:25.848Z,8.04
2023-02-06T14:11:00.702Z,6.53
2023-02-06T14:14:18.867Z,5.90
2023-02-06T14:17:54.990Z,4.71
2023-02-06T14:21:10.249Z,3.91
2023-02-06T14:25:09.533Z,3.07
2023-02-06T14:28:24.410Z,2.83
2023-02-06T14:31:35.755Z,2.24
2023-02-06T14:34:53.047Z,2.01
2023-02-06T14:38:38.462Z,1.70
2023-02-06T14:41:40.773Z,1.27
2023-02-06T14:44:46.802Z,1.30
2023-02-06T14:47:50.076Z,0.88
2023-02-06T14:50:57.058Z,0.86
2023-02-06T14:54:04.045Z,0.58
2023-02-06T14:57:16.528Z,0.26
2023-02-06T15:00:20.999Z,0.31
2023-02-06T15:03:27.254Z,0.02
2023-02-06T15:06:38.839Z,-0.08
2023-02-06T15:09:44.103Z,-0.46
2023-02-06T15:12:53.540Z,-0.41
2023-02-06T15:15:57.400Z,-0.45
2023-02-06T15:19:17.084Z,-0.53
2023-02-06T15:22:30.154Z,-0.58
2023-02-06T15:25:57.126Z,-0.77
2023-02-06T15:29:01.588Z,-0.83
2023-02-06T15:32:27.356Z,-0.99
2023-02-06T15:35:42.048Z,-1.18
2023-02-06T15:38:45.495Z,-1.14
2023-02-06T15:41:51.361Z,-1.14
2023-02-06T15:44:53.906Z,-1.43
2023-02-06T15:47:57.299Z,-1.37
2023-02-06T15:51:08.725Z,-1.35
2023-02-06T15:54:22.458Z,-1.47
2023-02-06T15:57:38.511Z,-1.56
2023-02-06T16:00:41.701Z,-1.54
2023-02-06T16:03:45.635Z,-1.61
2023-02-06T16:07:19.524Z,-1.60
2023-02-06T16:10:31.052Z,-1.66
2023-02-06T16:13:33.370Z,-1.82
2023-02-06T16:16:35.948Z,-1.84
2023-02-06T16:19:53.936Z,-1.87
2023-02-06T16:23:28.599Z,-1.89
2023-02-06T16:26:31.835Z,-2.04
2023-02-06T16:29:34.216Z,-2.06
2023-02-06T16:32:36.351Z,-2.03
2023-02-06T16:35:38.951Z,-1.86
2023-02-06T16:38:44.504Z,-1.77
2023-02-06T16:41:51.355Z,-1.78
2023-02-06T16:44:59.578Z,-1.95
2023-02-06T16:48:02.123Z,-1.85
2023-02-06T16:51:05.813Z,-1.82
2023-02-06T16:54:15.508Z,-1.98
2023-02-06T16:57:27.994Z,-2.11
2023-02-06T17:00:31.864Z,-1.98
2023-02-06T17:03:37.807Z,-1.93
2023-02-06T17:06:40.709Z,-2.01
2023-02-06T17:09:44.530Z,-1.93
2023-02-06T17:12:47.909Z,-2.03
2023-02-06T17:15:53.121Z,-2.07
2023-02-06T17:18:56.072Z,-2.12
2023-02-06T17:21:58.365Z,-2.10
2023-02-06T17:25:00.905Z,-2.06
2023-02-06T17:28:04.212Z,-2.20
2023-02-06T17:31:06.811Z,-2.30
2023-02-06T17:34:09.037Z,-2.34
2023-02-06T17:37:20.507Z,-2.16
2023-02-06T17:40:28.917Z,-2.19
2023-02-06T17:43:31.426Z,-2.40
2023-02-06T17:46:33.765Z,-2.48
2023-02-06T17:49:36.553Z,-2.56
2023-02-06T17:52:39.791Z,-2.53
2023-02-06T17:55:42.150Z,-2.51
2023-02-06T17:58:44.339Z,-2.46
2023-02-06T18:01:46.969Z,-2.59
2023-02-06T18:04:52.896Z,-2.74
2023-02-06T18:07:55.188Z,-2.76
2023-02-06T18:10:57.974Z,-2.65
2023-02-06T18:14:00.331Z,-2.76
2023-02-06T18:17:03.809Z,-2.74
2023-02-06T18:20:07.163Z,-2.85
2023-02-06T18:23:11.740Z,-2.78
2023-02-06T18:26:14.476Z,-2.55
2023-02-06T18:29:16.986Z,-2.59
2023-02-06T18:32:19.567Z,-2.64
2023-02-06T18:35:22.068Z,-2.74
2023-02-06T18:38:24.801Z,-2.69
2023-02-06T18:41:45.789Z,-2.78
2023-02-06T18:44:47.961Z,-2.80
2023-02-06T18:47:53.619Z,-2.74
2023-02-06T18:50:58.209Z,-2.61
2023-02-06T18:54:01.668Z,-2.78
2023-02-06T18:57:03.872Z,-2.95
2023-02-06T19:00:08.701Z,-2.95
2023-02-06T19:03:10.885Z,-3.01
2023-02-06T19:06:22.693Z,-3.08
2023-02-06T19:09:24.909Z,-3.20
2023-02-06T19:12:28.704Z,-3.01
2023-02-06T19:15:34.132Z,-2.94
2023-02-06T19:18:39.578Z,-3.03
2023-02-06T19:21:43.334Z,-3.11
2023-02-06T19:24:45.922Z,-2.79
2023-02-06T19:27:48.373Z,-2.77
2023-02-06T19:30:50.950Z,-2.90
2023-02-06T19:33:59.434Z,-2.94
2023-02-06T19:37:07.101Z,-2.85
2023-02-06T19:40:09.744Z,-2.93
2023-02-06T19:43:12.300Z,-2.89
2023-02-06T19:46:17.546Z,-2.94
2023-02-06T19:49:20.205Z,-3.14
2023-02-06T19:52:22.577Z,-3.04
2023-02-06T19:55:25.045Z,-3.08
2023-02-06T19:58:31.457Z,-3.28
2023-02-06T20:01:35.513Z,-3.25
2023-02-06T20:04:39.640Z,-3.20
2023-02-06T20:07:41.802Z,-3.24
2023-02-06T20:10:44.302Z,-3.20
2023-02-06T20:13:48.290Z,-3.22
2023-02-06T20:16:51.273Z,-3.37
2023-02-06T20:19:53.795Z,-3.67
2023-02-06T20:22:56.280Z,-3.48
2023-02-06T20:26:01.715Z,-3.38
2023-02-06T20:29:06.229Z,-3.39
2023-02-06T20:32:08.930Z,-3.54
2023-02-06T20:35:11.419Z,-3.52
2023-02-06T20:38:13.781Z,-3.60
2023-02-06T20:41:17.210Z,-3.78
2023-02-06T20:44:20.311Z,-3.87
2023-02-06T20:47:22.773Z,-4.08
2023-02-06T20:50:24.848Z,-4.18
2023-02-06T20:53:27.386Z,-4.17
2023-02-06T20:56:29.883Z,-3.86
2023-02-06T20:59:32.582Z,-3.98
2023-02-06T21:02:35.008Z,-3.81
2023-02-06T21:05:37.491Z,-3.68
2023-02-06T21:08:40.340Z,-3.64
2023-02-06T21:11:45.093Z,-3.75
2023-02-06T21:14:47.325Z,-3.97
2023-02-06T21:17:49.816Z,-3.94
2023-02-06T21:20:53.752Z,-4.07
2023-02-06T21:23:56.302Z,-4.15
2023-02-06T21:26:58.658Z,-4.21
2023-02-06T21:30:01.465Z,-4.20
2023-02-06T21:33:03.831Z,-4.39
2023-02-06T21:36:07.744Z,-4.46
2023-02-06T21:39:14.367Z,-4.41
2023-02-06T21:42:19.175Z,-4.53
2023-02-06T21:45:21.479Z,-4.66
2023-02-06T21:48:24.035Z,-4.71
2023-02-06T21:51:26.617Z,-4.69
2023-02-06T21:54:29.488Z,-4.58
2023-02-06T21:57:31.778Z,-4.67
2023-02-06T22:00:34.589Z,-4.62
2023-02-06T22:03:37.064Z,-4.64
2023-02-06T22:06:39.465Z,-4.56
2023-02-06T22:09:42.064Z,-4.52
2023-02-06T22:12:48.838Z,-4.54
2023-02-06T22:15:51.887Z,-4.53
2023-02-06T22:18:55.125Z,-4.42
2023-02-06T22:21:57.479Z,-4.25
2023-02-06T22:24:59.640Z,-4.35
2023-02-06T22:28:02.101Z,-4.52
2023-02-06T22:31:10.530Z,-4.58
2023-02-06T22:34:19.206Z,-4.69
2023-02-06T22:37:22.095Z,-4.76
2023-02-06T22:40:24.606Z,-4.80
2023-02-06T22:43:26.969Z,-4.76
2023-02-06T22:46:32.331Z,-4.83
2023-02-06T22:49:34.574Z,-4.84
2023-02-06T22:52:55.504Z,-4.82
2023-02-06T22:56:21.117Z,-4.81
2023-02-06T22:59:25.490Z,-4.93
2023-02-06T23:02:27.674Z,-5.00
2023-02-06T23:05:30.140Z,-5.02
2023-02-06T23:08:33.358Z,-5.06
2023-02-06T23:11:36.078Z,-5.05
2023-02-06T23:14:38.328Z,-5.11
2023-02-06T23:17:40.940Z,-4.98
2023-02-06T23:20:43.150Z,-4.95
2023-02-06T23:23:45.660Z,-5.08
2023-02-06T23:26:50.582Z,-5.17
2023-02-06T23:29:53.060Z,-5.30
2023-02-06T23:32:55.251Z,-5.42
2023-02-06T23:36:11.456Z,-5.46
2023-02-06T23:39:14.190Z,-5.44
2023-02-06T23:42:16.700Z,-5.54
2023-02-06T23:45:18.871Z,-5.66
2023-02-06T23:48:21.340Z,-5.53
2023-02-06T23:51:24.339Z,-5.59
2023-02-06T23:54:26.811Z,-5.61
2023-02-06T23:57:28.950Z,-5.73
